sensor_id;sensor_type;location;lat;lon;timestamp;pressure;altitude;pressure_sealevel;temperature;humidity
70302;BME280;57706;56.326;43.882;2023-05-23T00:02:09;101413.66;;;19.29;33.95
70302;BME280;57706;56.326;43.882;2023-05-23T00:04:38;101406.72;;;19.35;33.58
70302;BME280;57706;56.326;43.882;2023-05-23T00:07:04;101411.44;;;19.33;33.61
70302;BME280;57706;56.326;43.882;2023-05-23T00:09:30;101405.25;;;19.32;33.73
70302;BME280;57706;56.326;43.882;2023-05-23T00:11:56;101405.47;;;19.31;33.68
70302;BME280;57706;56.326;43.882;2023-05-23T00:14:22;101404.59;;;19.23;33.98
70302;BME280;57706;56.326;43.882;2023-05-23T00:16:48;101409.44;;;19.13;34.17
70302;BME280;57706;56.326;43.882;2023-05-23T00:19:14;101411.44;;;19.04;34.38
70302;BME280;57706;56.326;43.882;2023-05-23T00:21:45;101415.03;;;19.18;34.19
70302;BME280;57706;56.326;43.882;2023-05-23T00:24:15;101416.78;;;19.04;34.93
70302;BME280;57706;56.326;43.882;2023-05-23T00:26:45;101406.34;;;18.81;36.81
70302;BME280;57706;56.326;43.882;2023-05-23T00:29:11;101418.47;;;18.62;38.18
70302;BME280;57706;56.326;43.882;2023-05-23T00:31:42;101414.97;;;18.39;39.47
70302;BME280;57706;56.326;43.882;2023-05-23T00:34:14;101411.91;;;18.21;40.94
70302;BME280;57706;56.326;43.882;2023-05-23T00:36:42;101410.13;;;18.06;41.62
70302;BME280;57706;56.326;43.882;2023-05-23T00:39:09;101419.72;;;17.92;41.66
70302;BME280;57706;56.326;43.882;2023-05-23T00:41:47;101419.38;;;17.80;42.06
70302;BME280;57706;56.326;43.882;2023-05-23T00:44:13;101412.53;;;17.71;42.61
70302;BME280;57706;56.326;43.882;2023-05-23T00:46:40;101415.28;;;17.63;43.57
70302;BME280;57706;56.326;43.882;2023-05-23T00:49:08;101412.09;;;17.52;44.24
70302;BME280;57706;56.326;43.882;2023-05-23T00:51:35;101417.13;;;17.47;44.03
70302;BME280;57706;56.326;43.882;2023-05-23T00:54:03;101404.38;;;17.42;44.74
70302;BME280;57706;56.326;43.882;2023-05-23T00:56:29;101412.72;;;17.39;44.95
70302;BME280;57706;56.326;43.882;2023-05-23T00:58:57;101412.66;;;17.32;45.32
70302;BME280;57706;56.326;43.882;2023-05-23T01:01:25;101417.28;;;17.30;44.39
70302;BME280;57706;56.326;43.882;2023-05-23T01:03:52;101411.97;;;17.30;44.74
70302;BME280;57706;56.326;43.882;2023-05-23T01:06:19;101406.66;;;17.30;44.80
70302;BME280;57706;56.326;43.882;2023-05-23T01:08:44;101411.97;;;17.30;44.69
70302;BME280;57706;56.326;43.882;2023-05-23T01:11:16;101405.03;;;17.29;46.63
70302;BME280;57706;56.326;43.882;2023-05-23T01:14:00;101401.94;;;17.41;43.90
70302;BME280;57706;56.326;43.882;2023-05-23T01:16:47;101406.88;;;17.44;44.30
70302;BME280;57706;56.326;43.882;2023-05-23T01:22:14;101400.81;;;17.50;43.60
70302;BME280;57706;56.326;43.882;2023-05-23T01:24:56;101405.41;;;17.56;43.89
70302;BME280;57706;56.326;43.882;2023-05-23T01:27:48;101403.22;;;17.60;44.32
70302;BME280;57706;56.326;43.882;2023-05-23T01:30:18;101403.28;;;17.67;44.26
70302;BME280;57706;56.326;43.882;2023-05-23T01:32:50;101406.97;;;17.66;43.82
70302;BME280;57706;56.326;43.882;2023-05-23T01:35:24;101406.84;;;17.74;43.59
70302;BME280;57706;56.326;43.882;2023-05-23T01:37:54;101400.97;;;17.79;43.71
70302;BME280;57706;56.326;43.882;2023-05-23T01:40:23;101402.06;;;17.84;44.09
70302;BME280;57706;56.326;43.882;2023-05-23T01:42:51;101404.16;;;17.89;45.12
70302;BME280;57706;56.326;43.882;2023-05-23T01:45:17;101402.69;;;17.86;44.88
70302;BME280;57706;56.326;43.882;2023-05-23T01:47:45;101401.69;;;17.87;44.12
70302;BME280;57706;56.326;43.882;2023-05-23T01:50:13;101407.00;;;17.87;46.46
70302;BME280;57706;56.326;43.882;2023-05-23T01:52:39;101408.66;;;17.88;46.26
70302;BME280;57706;56.326;43.882;2023-05-23T01:55:06;101411.13;;;17.90;46.10
70302;BME280;57706;56.326;43.882;2023-05-23T01:57:37;101416.91;;;17.94;45.96
70302;BME280;57706;56.326;43.882;2023-05-23T02:00:06;101411.19;;;17.97;45.75
70302;BME280;57706;56.326;43.882;2023-05-23T02:02:40;101408.19;;;18.00;45.42
70302;BME280;57706;56.326;43.882;2023-05-23T02:05:06;101411.28;;;18.03;45.50
70302;BME280;57706;56.326;43.882;2023-05-23T02:07:32;101408.81;;;18.02;46.21
70302;BME280;57706;56.326;43.882;2023-05-23T02:09:58;101405.78;;;18.05;45.65
70302;BME280;57706;56.326;43.882;2023-05-23T02:12:24;101406.69;;;18.12;45.60
70302;BME280;57706;56.326;43.882;2023-05-23T02:14:50;101408.63;;;18.19;45.19
70302;BME280;57706;56.326;43.882;2023-05-23T02:17:18;101413.19;;;18.25;45.55
70302;BME280;57706;56.326;43.882;2023-05-23T02:19:47;101415.56;;;18.35;45.19
70302;BME280;57706;56.326;43.882;2023-05-23T02:22:13;101408.44;;;18.42;45.22
70302;BME280;57706;56.326;43.882;2023-05-23T02:24:39;101419.16;;;18.49;45.35
70302;BME280;57706;56.326;43.882;2023-05-23T02:27:05;101419.47;;;18.61;40.69
70302;BME280;57706;56.326;43.882;2023-05-23T02:29:32;101426.84;;;18.87;41.13
70302;BME280;57706;56.326;43.882;2023-05-23T02:31:58;101427.34;;;18.97;42.28
70302;BME280;57706;56.326;43.882;2023-05-23T02:34:24;101430.09;;;19.04;41.82
70302;BME280;57706;56.326;43.882;2023-05-23T02:36:50;101428.59;;;19.23;39.09
70302;BME280;57706;56.326;43.882;2023-05-23T02:39:16;101423.25;;;19.59;38.16
70302;BME280;57706;56.326;43.882;2023-05-23T02:41:44;101424.91;;;19.66;36.81
70302;BME280;57706;56.326;43.882;2023-05-23T02:44:10;101435.25;;;19.83;36.99
70302;BME280;57706;56.326;43.882;2023-05-23T02:46:36;101430.44;;;20.00;37.98
70302;BME280;57706;56.326;43.882;2023-05-23T02:49:03;101434.31;;;20.04;38.36
70302;BME280;57706;56.326;43.882;2023-05-23T02:51:29;101437.63;;;20.06;40.27
70302;BME280;57706;56.326;43.882;2023-05-23T02:53:56;101433.16;;;20.14;39.01
70302;BME280;57706;56.326;43.882;2023-05-23T02:56:22;101440.75;;;20.17;37.29
70302;BME280;57706;56.326;43.882;2023-05-23T02:58:48;101428.63;;;20.21;36.50
70302;BME280;57706;56.326;43.882;2023-05-23T03:01:13;101426.41;;;20.31;36.70
70302;BME280;57706;56.326;43.882;2023-05-23T03:03:39;101435.44;;;20.37;37.18
70302;BME280;57706;56.326;43.882;2023-05-23T03:06:06;101438.72;;;20.32;36.66
70302;BME280;57706;56.326;43.882;2023-05-23T03:08:35;101427.63;;;20.29;36.38
70302;BME280;57706;56.326;43.882;2023-05-23T03:11:01;101428.88;;;20.40;35.23
70302;BME280;57706;56.326;43.882;2023-05-23T03:13:27;101440.41;;;20.47;34.97
70302;BME280;57706;56.326;43.882;2023-05-23T03:15:53;101444.06;;;20.46;35.32
70302;BME280;57706;56.326;43.882;2023-05-23T03:18:19;101441.41;;;20.46;34.81
70302;BME280;57706;56.326;43.882;2023-05-23T03:20:45;101428.47;;;20.43;35.42
70302;BME280;57706;56.326;43.882;2023-05-23T03:23:11;101434.88;;;20.69;34.71
70302;BME280;57706;56.326;43.882;2023-05-23T03:25:37;101436.72;;;20.82;34.37
70302;BME280;57706;56.326;43.882;2023-05-23T03:28:03;101433.88;;;20.97;34.66
70302;BME280;57706;56.326;43.882;2023-05-23T03:30:29;101441.69;;;21.05;34.46
70302;BME280;57706;56.326;43.882;2023-05-23T03:32:56;101431.16;;;21.24;34.13
70302;BME280;57706;56.326;43.882;2023-05-23T03:35:21;101432.78;;;21.38;33.93
70302;BME280;57706;56.326;43.882;2023-05-23T03:37:47;101427.22;;;21.40;33.93
70302;BME280;57706;56.326;43.882;2023-05-23T03:40:13;101423.47;;;21.54;33.51
70302;BME280;57706;56.326;43.882;2023-05-23T03:42:39;101412.78;;;21.68;33.69
70302;BME280;57706;56.326;43.882;2023-05-23T03:45:06;101416.59;;;21.85;33.64
70302;BME280;57706;56.326;43.882;2023-05-23T03:47:33;101413.13;;;21.78;33.78
70302;BME280;57706;56.326;43.882;2023-05-23T03:49:58;101421.16;;;21.78;33.63
70302;BME280;57706;56.326;43.882;2023-05-23T03:52:26;101420.50;;;21.83;33.17
70302;BME280;57706;56.326;43.882;2023-05-23T03:54:51;101418.78;;;21.95;33.76
70302;BME280;57706;56.326;43.882;2023-05-23T03:57:18;101424.28;;;21.68;33.87
70302;BME280;57706;56.326;43.882;2023-05-23T03:59:44;101417.25;;;21.81;33.13
70302;BME280;57706;56.326;43.882;2023-05-23T04:02:11;101418.38;;;21.98;33.49
70302;BME280;57706;56.326;43.882;2023-05-23T04:04:37;101416.34;;;21.94;33.06
70302;BME280;57706;56.326;43.882;2023-05-23T04:07:04;101421.22;;;22.04;32.88
70302;BME280;57706;56.326;43.882;2023-05-23T04:09:31;101419.13;;;22.12;33.25
70302;BME280;57706;56.326;43.882;2023-05-23T04:11:58;101416.25;;;22.07;33.53
70302;BME280;57706;56.326;43.882;2023-05-23T04:14:25;101413.44;;;22.02;33.26
70302;BME280;57706;56.326;43.882;2023-05-23T04:16:52;101417.31;;;22.38;32.76
70302;BME280;57706;56.326;43.882;2023-05-23T04:19:18;101417.97;;;22.66;32.37
70302;BME280;57706;56.326;43.882;2023-05-23T04:21:44;101417.25;;;22.52;32.82
70302;BME280;57706;56.326;43.882;2023-05-23T04:24:13;101415.88;;;22.68;32.57
70302;BME280;57706;56.326;43.882;2023-05-23T04:26:39;101416.59;;;22.82;32.51
70302;BME280;57706;56.326;43.882;2023-05-23T04:29:05;101417.81;;;23.30;33.05
70302;BME280;57706;56.326;43.882;2023-05-23T04:31:32;101415.97;;;23.49;32.98
70302;BME280;57706;56.326;43.882;2023-05-23T04:34:00;101413.94;;;23.63;31.24
70302;BME280;57706;56.326;43.882;2023-05-23T04:36:27;101417.44;;;23.95;31.38
70302;BME280;57706;56.326;43.882;2023-05-23T04:38:55;101410.44;;;23.93;30.19
70302;BME280;57706;56.326;43.882;2023-05-23T04:41:20;101420.09;;;23.83;30.33
70302;BME280;57706;56.326;43.882;2023-05-23T04:44:24;101414.41;;;23.72;31.25
70302;BME280;57706;56.326;43.882;2023-05-23T04:47:08;101414.97;;;23.62;29.50
70302;BME280;57706;56.326;43.882;2023-05-23T04:49:51;101422.28;;;23.55;30.11
70302;BME280;57706;56.326;43.882;2023-05-23T04:52:18;101418.78;;;23.36;30.28
70302;BME280;57706;56.326;43.882;2023-05-23T04:54:45;101417.16;;;23.35;30.34
70302;BME280;57706;56.326;43.882;2023-05-23T04:57:11;101409.78;;;23.23;30.87
70302;BME280;57706;56.326;43.882;2023-05-23T04:59:37;101415.44;;;23.41;30.68
70302;BME280;57706;56.326;43.882;2023-05-23T05:02:04;101413.41;;;23.36;30.49
70302;BME280;57706;56.326;43.882;2023-05-23T05:04:31;101410.81;;;23.29;30.20
70302;BME280;57706;56.326;43.882;2023-05-23T05:06:57;101405.94;;;23.57;29.90
70302;BME280;57706;56.326;43.882;2023-05-23T05:09:23;101412.00;;;23.71;29.79
70302;BME280;57706;56.326;43.882;2023-05-23T05:11:49;101408.34;;;23.96;29.64
70302;BME280;57706;56.326;43.882;2023-05-23T05:14:15;101411.41;;;23.99;29.61
70302;BME280;57706;56.326;43.882;2023-05-23T05:16:42;101407.88;;;23.99;29.76
70302;BME280;57706;56.326;43.882;2023-05-23T05:19:10;101408.06;;;23.85;30.04
70302;BME280;57706;56.326;43.882;2023-05-23T05:21:36;101401.91;;;24.15;30.21
70302;BME280;57706;56.326;43.882;2023-05-23T05:24:02;101408.06;;;24.46;29.35
70302;BME280;57706;56.326;43.882;2023-05-23T05:26:28;101403.34;;;24.30;28.52
70302;BME280;57706;56.326;43.882;2023-05-23T05:28:54;101406.16;;;24.35;28.76
70302;BME280;57706;56.326;43.882;2023-05-23T05:31:21;101404.78;;;24.68;28.89
70302;BME280;57706;56.326;43.882;2023-05-23T05:33:47;101404.25;;;25.02;28.12
70302;BME280;57706;56.326;43.882;2023-05-23T05:36:15;101396.56;;;25.35;26.83
70302;BME280;57706;56.326;43.882;2023-05-23T05:38:42;101398.50;;;26.73;25.77
70302;BME280;57706;56.326;43.882;2023-05-23T05:41:10;101392.47;;;30.03;22.28
70302;BME280;57706;56.326;43.882;2023-05-23T05:43:41;101388.59;;;31.58;19.74
70302;BME280;57706;56.326;43.882;2023-05-23T05:46:07;101393.56;;;30.54;20.56
70302;BME280;57706;56.326;43.882;2023-05-23T05:48:33;101389.03;;;31.25;20.03
70302;BME280;57706;56.326;43.882;2023-05-23T05:51:04;101394.81;;;32.33;18.43
70302;BME280;57706;56.326;43.882;2023-05-23T05:53:32;101392.44;;;34.81;17.53
70302;BME280;57706;56.326;43.882;2023-05-23T05:55:58;101390.94;;;33.18;17.36
70302;BME280;57706;56.326;43.882;2023-05-23T05:58:25;101388.78;;;34.44;16.95
70302;BME280;57706;56.326;43.882;2023-05-23T06:00:55;101384.06;;;31.43;19.08
70302;BME280;57706;56.326;43.882;2023-05-23T06:03:21;101401.19;;;30.10;20.38
70302;BME280;57706;56.326;43.882;2023-05-23T06:05:52;101391.91;;;29.70;20.63
70302;BME280;57706;56.326;43.882;2023-05-23T06:08:18;101396.28;;;29.12;22.09
70302;BME280;57706;56.326;43.882;2023-05-23T06:10:44;101397.56;;;28.99;21.88
70302;BME280;57706;56.326;43.882;2023-05-23T06:13:10;101392.63;;;28.15;22.71
70302;BME280;57706;56.326;43.882;2023-05-23T06:15:37;101393.63;;;28.03;23.28
70302;BME280;57706;56.326;43.882;2023-05-23T06:18:03;101386.06;;;28.33;23.62
70302;BME280;57706;56.326;43.882;2023-05-23T06:20:30;101392.91;;;27.86;23.92
70302;BME280;57706;56.326;43.882;2023-05-23T06:22:59;101394.13;;;29.14;22.84
70302;BME280;57706;56.326;43.882;2023-05-23T06:25:26;101382.84;;;32.88;18.97
70302;BME280;57706;56.326;43.882;2023-05-23T06:27:52;101380.94;;;34.23;17.50
70302;BME280;57706;56.326;43.882;2023-05-23T06:30:17;101379.28;;;36.48;15.03
70302;BME280;57706;56.326;43.882;2023-05-23T06:32:44;101375.78;;;37.15;14.50
70302;BME280;57706;56.326;43.882;2023-05-23T06:35:10;101368.53;;;39.40;13.29
70302;BME280;57706;56.326;43.882;2023-05-23T06:37:36;101357.06;;;40.93;12.62
70302;BME280;57706;56.326;43.882;2023-05-23T06:40:02;101358.97;;;39.92;12.92
70302;BME280;57706;56.326;43.882;2023-05-23T06:42:31;101355.69;;;39.10;13.60
70302;BME280;57706;56.326;43.882;2023-05-23T06:45:09;101365.75;;;39.06;13.84
70302;BME280;57706;56.326;43.882;2023-05-23T06:47:36;101361.53;;;38.01;13.94
70302;BME280;57706;56.326;43.882;2023-05-23T06:50:03;101359.69;;;39.13;13.90
70302;BME280;57706;56.326;43.882;2023-05-23T06:52:31;101354.56;;;40.38;12.77
70302;BME280;57706;56.326;43.882;2023-05-23T06:55:06;101362.03;;;42.05;11.42
70302;BME280;57706;56.326;43.882;2023-05-23T06:57:33;101350.81;;;42.46;11.12
70302;BME280;57706;56.326;43.882;2023-05-23T06:59:59;101348.38;;;42.44;11.55
70302;BME280;57706;56.326;43.882;2023-05-23T07:02:25;101356.75;;;42.64;11.39
70302;BME280;57706;56.326;43.882;2023-05-23T07:04:50;101350.53;;;43.26;10.90
70302;BME280;57706;56.326;43.882;2023-05-23T07:07:36;101345.63;;;45.24;10.22
70302;BME280;57706;56.326;43.882;2023-05-23T07:10:01;101337.66;;;46.10;9.47
70302;BME280;57706;56.326;43.882;2023-05-23T07:12:28;101344.13;;;47.06;8.99
70302;BME280;57706;56.326;43.882;2023-05-23T07:14:53;101346.97;;;47.24;8.78
70302;BME280;57706;56.326;43.882;2023-05-23T07:17:19;101333.81;;;44.63;9.54
70302;BME280;57706;56.326;43.882;2023-05-23T07:19:46;101340.91;;;41.64;11.12
70302;BME280;57706;56.326;43.882;2023-05-23T07:22:13;101337.16;;;43.09;10.83
70302;BME280;57706;56.326;43.882;2023-05-23T07:24:40;101333.44;;;42.81;11.50
70302;BME280;57706;56.326;43.882;2023-05-23T07:27:06;101329.13;;;43.43;11.13
70302;BME280;57706;56.326;43.882;2023-05-23T07:29:34;101328.28;;;43.85;11.10
70302;BME280;57706;56.326;43.882;2023-05-23T07:32:00;101328.72;;;44.68;10.52
70302;BME280;57706;56.326;43.882;2023-05-23T07:34:27;101336.91;;;45.22;10.11
70302;BME280;57706;56.326;43.882;2023-05-23T07:36:55;101323.41;;;44.56;10.70
70302;BME280;57706;56.326;43.882;2023-05-23T07:39:24;101337.78;;;42.82;11.58
70302;BME280;57706;56.326;43.882;2023-05-23T07:41:52;101339.50;;;41.71;11.91
70302;BME280;57706;56.326;43.882;2023-05-23T07:44:18;101334.00;;;42.51;11.32
70302;BME280;57706;56.326;43.882;2023-05-23T07:46:44;101329.28;;;44.51;9.95
70302;BME280;57706;56.326;43.882;2023-05-23T07:49:10;101324.84;;;45.42;9.03
70302;BME280;57706;56.326;43.882;2023-05-23T07:51:37;101331.84;;;44.63;9.33
70302;BME280;57706;56.326;43.882;2023-05-23T07:54:04;101319.88;;;43.55;10.26
70302;BME280;57706;56.326;43.882;2023-05-23T07:56:30;101323.03;;;42.06;11.13
70302;BME280;57706;56.326;43.882;2023-05-23T07:58:56;101332.59;;;44.60;9.79
70302;BME280;57706;56.326;43.882;2023-05-23T08:01:22;101308.63;;;42.29;10.85
70302;BME280;57706;56.326;43.882;2023-05-23T08:04:01;101310.47;;;45.36;9.64
70302;BME280;57706;56.326;43.882;2023-05-23T08:06:47;101313.84;;;46.72;9.22
70302;BME280;57706;56.326;43.882;2023-05-23T08:09:14;101317.81;;;46.85;8.50
70302;BME280;57706;56.326;43.882;2023-05-23T08:11:47;101302.09;;;44.94;9.22
70302;BME280;57706;56.326;43.882;2023-05-23T08:14:13;101297.03;;;44.08;9.12
70302;BME280;57706;56.326;43.882;2023-05-23T08:17:02;101290.63;;;44.04;9.67
70302;BME280;57706;56.326;43.882;2023-05-23T08:19:29;101299.50;;;42.81;10.31
70302;BME280;57706;56.326;43.882;2023-05-23T08:21:55;101298.69;;;42.60;10.52
70302;BME280;57706;56.326;43.882;2023-05-23T08:24:21;101290.34;;;45.88;8.75
70302;BME280;57706;56.326;43.882;2023-05-23T08:26:48;101289.00;;;46.23;8.35
70302;BME280;57706;56.326;43.882;2023-05-23T08:29:15;101289.91;;;42.94;10.07
70302;BME280;57706;56.326;43.882;2023-05-23T08:31:42;101287.66;;;45.12;9.10
70302;BME280;57706;56.326;43.882;2023-05-23T08:34:10;101274.09;;;45.00;9.11
70302;BME280;57706;56.326;43.882;2023-05-23T08:36:37;101276.81;;;45.83;8.91
70302;BME280;57706;56.326;43.882;2023-05-23T08:39:07;101275.47;;;44.52;9.09
70302;BME280;57706;56.326;43.882;2023-05-23T08:41:39;101283.53;;;46.49;8.29
70302;BME280;57706;56.326;43.882;2023-05-23T08:44:09;101271.88;;;47.21;7.96
70302;BME280;57706;56.326;43.882;2023-05-23T08:46:44;101275.28;;;44.37;7.77
70302;BME280;57706;56.326;43.882;2023-05-23T08:49:16;101265.56;;;41.60;9.26
70302;BME280;57706;56.326;43.882;2023-05-23T08:51:43;101257.28;;;41.60;9.39
70302;BME280;57706;56.326;43.882;2023-05-23T08:54:15;101274.84;;;42.72;8.90
70302;BME280;57706;56.326;43.882;2023-05-23T08:56:42;101277.69;;;41.88;8.91
70302;BME280;57706;56.326;43.882;2023-05-23T08:59:08;101255.34;;;43.27;7.50
70302;BME280;57706;56.326;43.882;2023-05-23T09:01:37;101271.81;;;41.73;8.21
70302;BME280;57706;56.326;43.882;2023-05-23T09:04:08;101261.06;;;40.95;8.88
70302;BME280;57706;56.326;43.882;2023-05-23T09:06:44;101254.78;;;42.95;8.56
70302;BME280;57706;56.326;43.882;2023-05-23T09:09:10;101256.16;;;39.85;9.41
70302;BME280;57706;56.326;43.882;2023-05-23T09:11:36;101255.31;;;38.71;10.98
70302;BME280;57706;56.326;43.882;2023-05-23T09:14:02;101239.81;;;40.67;10.25
70302;BME280;57706;56.326;43.882;2023-05-23T09:16:32;101243.06;;;41.58;9.73
70302;BME280;57706;56.326;43.882;2023-05-23T09:19:13;101234.75;;;42.22;9.61
70302;BME280;57706;56.326;43.882;2023-05-23T09:21:44;101236.28;;;38.44;11.37
70302;BME280;57706;56.326;43.882;2023-05-23T09:24:15;101245.97;;;42.14;9.05
70302;BME280;57706;56.326;43.882;2023-05-23T09:26:46;101253.97;;;42.19;7.52
70302;BME280;57706;56.326;43.882;2023-05-23T09:29:13;101237.78;;;43.16;7.69
70302;BME280;57706;56.326;43.882;2023-05-23T09:31:41;101241.47;;;42.61;7.69
70302;BME280;57706;56.326;43.882;2023-05-23T09:34:09;101239.06;;;43.42;7.37
70302;BME280;57706;56.326;43.882;2023-05-23T09:36:39;101246.03;;;44.40;7.23
70302;BME280;57706;56.326;43.882;2023-05-23T09:39:10;101233.50;;;44.84;6.80
70302;BME280;57706;56.326;43.882;2023-05-23T09:41:37;101240.69;;;43.23;7.51
70302;BME280;57706;56.326;43.882;2023-05-23T09:44:09;101235.28;;;43.77;7.67
70302;BME280;57706;56.326;43.882;2023-05-23T09:46:36;101229.59;;;43.70;7.93
70302;BME280;57706;56.326;43.882;2023-05-23T09:49:15;101230.00;;;44.56;7.58
70302;BME280;57706;56.326;43.882;2023-05-23T09:51:43;101239.53;;;44.93;6.98
70302;BME280;57706;56.326;43.882;2023-05-23T09:54:21;101231.50;;;43.39;7.67
70302;BME280;57706;56.326;43.882;2023-05-23T09:56:47;101220.25;;;44.32;6.86
70302;BME280;57706;56.326;43.882;2023-05-23T09:59:14;101220.13;;;46.76;6.36
70302;BME280;57706;56.326;43.882;2023-05-23T10:01:46;101225.28;;;44.57;7.16
70302;BME280;57706;56.326;43.882;2023-05-23T10:04:15;101234.50;;;46.00;6.49
70302;BME280;57706;56.326;43.882;2023-05-23T10:06:49;101228.66;;;46.20;6.26
70302;BME280;57706;56.326;43.882;2023-05-23T10:09:19;101222.78;;;44.18;7.64
70302;BME280;57706;56.326;43.882;2023-05-23T10:14:18;101217.28;;;43.17;8.28
70302;BME280;57706;56.326;43.882;2023-05-23T10:17:14;101214.84;;;40.47;9.63
70302;BME280;57706;56.326;43.882;2023-05-23T10:19:47;101224.94;;;38.46;11.05
70302;BME280;57706;56.326;43.882;2023-05-23T10:22:15;101221.44;;;36.75;12.50
70302;BME280;57706;56.326;43.882;2023-05-23T10:24:43;101230.22;;;35.33;13.54
70302;BME280;57706;56.326;43.882;2023-05-23T10:27:10;101227.72;;;35.46;13.50
70302;BME280;57706;56.326;43.882;2023-05-23T10:29:36;101215.72;;;34.22;14.64
70302;BME280;57706;56.326;43.882;2023-05-23T10:32:03;101221.91;;;33.53;15.36
70302;BME280;57706;56.326;43.882;2023-05-23T10:37:21;101228.38;;;32.80;16.41
70302;BME280;57706;56.326;43.882;2023-05-23T10:42:27;101223.56;;;36.12;13.55
70302;BME280;57706;56.326;43.882;2023-05-23T10:45:16;101232.94;;;36.37;13.68
70302;BME280;57706;56.326;43.882;2023-05-23T10:47:41;101219.09;;;38.56;11.84
70302;BME280;57706;56.326;43.882;2023-05-23T10:50:11;101214.16;;;37.80;11.44
70302;BME280;57706;56.326;43.882;2023-05-23T10:52:39;101212.88;;;38.17;11.67
70302;BME280;57706;56.326;43.882;2023-05-23T10:55:13;101211.78;;;39.03;11.02
70302;BME280;57706;56.326;43.882;2023-05-23T10:57:40;101207.66;;;37.94;10.53
70302;BME280;57706;56.326;43.882;2023-05-23T11:00:15;101196.34;;;38.89;9.93
70302;BME280;57706;56.326;43.882;2023-05-23T11:02:54;101198.38;;;39.72;9.89
70302;BME280;57706;56.326;43.882;2023-05-23T11:05:27;101199.75;;;39.07;9.71
70302;BME280;57706;56.326;43.882;2023-05-23T11:08:12;101201.78;;;38.34;10.19
70302;BME280;57706;56.326;43.882;2023-05-23T11:10:55;101184.50;;;37.82;10.26
70302;BME280;57706;56.326;43.882;2023-05-23T11:13:21;101189.00;;;38.81;9.98
70302;BME280;57706;56.326;43.882;2023-05-23T11:15:48;101191.66;;;39.11;9.57
70302;BME280;57706;56.326;43.882;2023-05-23T11:18:22;101193.31;;;41.38;8.24
70302;BME280;57706;56.326;43.882;2023-05-23T11:20:52;101184.63;;;42.60;8.11
70302;BME280;57706;56.326;43.882;2023-05-23T11:23:19;101183.63;;;43.62;7.59
70302;BME280;57706;56.326;43.882;2023-05-23T11:25:51;101174.78;;;46.43;6.42
70302;BME280;57706;56.326;43.882;2023-05-23T11:28:18;101185.34;;;42.17;7.87
70302;BME280;57706;56.326;43.882;2023-05-23T11:30:48;101193.13;;;41.63;7.72
70302;BME280;57706;56.326;43.882;2023-05-23T11:33:15;101205.69;;;42.48;8.01
70302;BME280;57706;56.326;43.882;2023-05-23T11:35:45;101197.06;;;37.36;10.94
70302;BME280;57706;56.326;43.882;2023-05-23T11:38:13;101177.13;;;35.03;12.48
70302;BME280;57706;56.326;43.882;2023-05-23T11:40:41;101184.91;;;37.54;11.03
70302;BME280;57706;56.326;43.882;2023-05-23T11:43:13;101174.13;;;38.39;10.34
70302;BME280;57706;56.326;43.882;2023-05-23T11:45:40;101178.25;;;36.90;11.25
70302;BME280;57706;56.326;43.882;2023-05-23T11:48:14;101172.44;;;42.05;8.48
70302;BME280;57706;56.326;43.882;2023-05-23T11:50:52;101172.22;;;43.63;7.64
70302;BME280;57706;56.326;43.882;2023-05-23T11:53:20;101156.16;;;37.99;10.89
70302;BME280;57706;56.326;43.882;2023-05-23T11:55:51;101168.09;;;37.17;11.47
70302;BME280;57706;56.326;43.882;2023-05-23T11:58:20;101168.53;;;38.78;10.22
70302;BME280;57706;56.326;43.882;2023-05-23T12:00:46;101165.63;;;39.55;9.94
70302;BME280;57706;56.326;43.882;2023-05-23T12:03:12;101165.84;;;41.26;8.71
70302;BME280;57706;56.326;43.882;2023-05-23T12:05:38;101154.88;;;39.49;9.41
70302;BME280;57706;56.326;43.882;2023-05-23T12:08:04;101158.22;;;39.21;10.11
70302;BME280;57706;56.326;43.882;2023-05-23T12:10:30;101153.84;;;43.01;7.99
70302;BME280;57706;56.326;43.882;2023-05-23T12:12:56;101157.88;;;42.24;8.56
70302;BME280;57706;56.326;43.882;2023-05-23T12:15:25;101141.28;;;37.79;11.19
70302;BME280;57706;56.326;43.882;2023-05-23T12:17:55;101151.22;;;36.62;11.92
70302;BME280;57706;56.326;43.882;2023-05-23T12:20:21;101152.69;;;33.68;13.75
70302;BME280;57706;56.326;43.882;2023-05-23T12:22:52;101147.69;;;38.13;11.11
70302;BME280;57706;56.326;43.882;2023-05-23T12:25:18;101146.00;;;38.85;10.58
70302;BME280;57706;56.326;43.882;2023-05-23T12:27:47;101119.34;;;35.32;13.02
70302;BME280;57706;56.326;43.882;2023-05-23T12:30:14;101134.78;;;32.62;15.31
70302;BME280;57706;56.326;43.882;2023-05-23T12:32:44;101148.47;;;36.80;12.30
70302;BME280;57706;56.326;43.882;2023-05-23T12:35:13;101138.00;;;34.84;13.46
70302;BME280;57706;56.326;43.882;2023-05-23T12:37:45;101142.22;;;37.83;11.35
70302;BME280;57706;56.326;43.882;2023-05-23T12:40:13;101131.81;;;39.29;10.48
70302;BME280;57706;56.326;43.882;2023-05-23T12:42:54;101125.31;;;39.46;10.43
70302;BME280;57706;56.326;43.882;2023-05-23T12:45:22;101124.84;;;34.86;13.83
70302;BME280;57706;56.326;43.882;2023-05-23T12:47:49;101124.13;;;39.10;10.75
70302;BME280;57706;56.326;43.882;2023-05-23T12:50:15;101126.16;;;41.47;9.76
70302;BME280;57706;56.326;43.882;2023-05-23T12:52:41;101117.03;;;39.09;11.05
70302;BME280;57706;56.326;43.882;2023-05-23T12:55:07;101116.22;;;40.49;9.98
70302;BME280;57706;56.326;43.882;2023-05-23T12:57:34;101118.44;;;40.59;10.13
70302;BME280;57706;56.326;43.882;2023-05-23T13:00:01;101120.81;;;41.54;9.84
70302;BME280;57706;56.326;43.882;2023-05-23T13:02:31;101109.19;;;42.36;8.94